sensor_id;sensor_type;location;lat;lon;timestamp;P1;durP1;ratioP1;P2;durP2;ratioP2
21657;SDS011;10990;48.174;9.782;2023-02-14T00:01:17;59.07;;;22.40;;
21657;SDS011;10990;48.174;9.782;2023-02-14T00:03:44;77.53;;;23.43;;
21657;SDS011;10990;48.174;9.782;2023-02-14T00:06:11;65.07;;;23.57;;
21657;SDS011;10990;48.174;9.782;2023-02-14T00:08:39;98.80;;;23.90;;
21657;SDS011;10990;48.174;9.782;2023-02-14T00:11:08;51.90;;;21.43;;
21657;SDS011;10990;48.174;9.782;2023-02-14T00:13:35;81.37;;;24.23;;
21657;SDS011;10990;48.174;9.782;2023-02-14T00:16:03;58.00;;;21.90;;
21657;SDS011;10990;48.174;9.782;2023-02-14T00:18:30;44.47;;;19.30;;
21657;SDS011;10990;48.174;9.782;2023-02-14T00:21:10;102.17;;;23.47;;
21657;SDS011;10990;48.174;9.782;2023-02-14T00:23:37;72.90;;;24.03;;
21657;SDS011;10990;48.174;9.782;2023-02-14T00:26:04;67.77;;;23.23;;
21657;SDS011;10990;48.174;9.782;2023-02-14T00:28:31;112.07;;;24.87;;
21657;SDS011;10990;48.174;9.782;2023-02-14T00:30:58;82.20;;;23.03;;
21657;SDS011;10990;48.174;9.782;2023-02-14T00:33:26;87.20;;;23.60;;
21657;SDS011;10990;48.174;9.782;2023-02-14T00:35:54;94.83;;;23.57;;
21657;SDS011;10990;48.174;9.782;2023-02-14T00:38:21;67.97;;;23.33;;
21657;SDS011;10990;48.174;9.782;2023-02-14T00:40:47;62.67;;;23.23;;
21657;SDS011;10990;48.174;9.782;2023-02-14T00:43:16;75.57;;;23.27;;
21657;SDS011;10990;48.174;9.782;2023-02-14T00:45:42;68.07;;;22.17;;
21657;SDS011;10990;48.174;9.782;2023-02-14T00:48:09;60.63;;;22.50;;
21657;SDS011;10990;48.174;9.782;2023-02-14T00:50:36;64.80;;;23.03;;
21657;SDS011;10990;48.174;9.782;2023-02-14T00:53:04;115.77;;;23.90;;
21657;SDS011;10990;48.174;9.782;2023-02-14T00:55:31;177.10;;;27.13;;
21657;SDS011;10990;48.174;9.782;2023-02-14T00:57:57;127.10;;;25.47;;
21657;SDS011;10990;48.174;9.782;2023-02-14T01:00:26;58.07;;;22.30;;
21657;SDS011;10990;48.174;9.782;2023-02-14T01:02:54;64.80;;;22.33;;
21657;SDS011;10990;48.174;9.782;2023-02-14T01:05:20;59.90;;;22.53;;
21657;SDS011;10990;48.174;9.782;2023-02-14T01:07:47;47.73;;;20.70;;
21657;SDS011;10990;48.174;9.782;2023-02-14T01:10:15;59.27;;;21.93;;
21657;SDS011;10990;48.174;9.782;2023-02-14T01:12:42;52.87;;;21.30;;
21657;SDS011;10990;48.174;9.782;2023-02-14T01:15:09;57.80;;;21.67;;
21657;SDS011;10990;48.174;9.782;2023-02-14T01:17:36;42.00;;;20.10;;
21657;SDS011;10990;48.174;9.782;2023-02-14T01:20:06;48.83;;;19.97;;
21657;SDS011;10990;48.174;9.782;2023-02-14T01:22:34;63.17;;;23.03;;
21657;SDS011;10990;48.174;9.782;2023-02-14T01:25:01;46.23;;;20.67;;
21657;SDS011;10990;48.174;9.782;2023-02-14T01:27:29;62.07;;;21.47;;
21657;SDS011;10990;48.174;9.782;2023-02-14T01:29:56;54.37;;;22.17;;
21657;SDS011;10990;48.174;9.782;2023-02-14T01:32:23;57.60;;;21.23;;
21657;SDS011;10990;48.174;9.782;2023-02-14T01:34:50;55.73;;;21.00;;
21657;SDS011;10990;48.174;9.782;2023-02-14T01:37:16;49.00;;;21.13;;
21657;SDS011;10990;48.174;9.782;2023-02-14T01:39:43;53.60;;;20.73;;
21657;SDS011;10990;48.174;9.782;2023-02-14T01:42:12;53.97;;;20.67;;
21657;SDS011;10990;48.174;9.782;2023-02-14T01:45:01;55.07;;;20.63;;
21657;SDS011;10990;48.174;9.782;2023-02-14T01:47:31;49.93;;;20.97;;
21657;SDS011;10990;48.174;9.782;2023-02-14T01:50:02;47.83;;;21.40;;
21657;SDS011;10990;48.174;9.782;2023-02-14T01:52:33;44.07;;;19.77;;
21657;SDS011;10990;48.174;9.782;2023-02-14T01:55:07;43.00;;;19.47;;
21657;SDS011;10990;48.174;9.782;2023-02-14T01:57:42;41.90;;;19.30;;
21657;SDS011;10990;48.174;9.782;2023-02-14T02:00:15;42.83;;;19.37;;
21657;SDS011;10990;48.174;9.782;2023-02-14T02:03:00;49.20;;;20.37;;
21657;SDS011;10990;48.174;9.782;2023-02-14T02:05:28;44.23;;;19.87;;
21657;SDS011;10990;48.174;9.782;2023-02-14T02:07:56;43.60;;;19.33;;
21657;SDS011;10990;48.174;9.782;2023-02-14T02:10:26;42.77;;;18.40;;
21657;SDS011;10990;48.174;9.782;2023-02-14T02:12:53;65.40;;;22.93;;
21657;SDS011;10990;48.174;9.782;2023-02-14T02:15:22;50.93;;;20.60;;
21657;SDS011;10990;48.174;9.782;2023-02-14T02:17:52;57.53;;;20.83;;
21657;SDS011;10990;48.174;9.782;2023-02-14T02:26:57;51.53;;;19.37;;
21657;SDS011;10990;48.174;9.782;2023-02-14T02:33:07;49.53;;;20.03;;
21657;SDS011;10990;48.174;9.782;2023-02-14T02:36:05;47.60;;;19.70;;
21657;SDS011;10990;48.174;9.782;2023-02-14T02:38:47;43.07;;;20.10;;
21657;SDS011;10990;48.174;9.782;2023-02-14T02:41:27;46.00;;;21.03;;
21657;SDS011;10990;48.174;9.782;2023-02-14T02:44:08;40.00;;;18.97;;
21657;SDS011;10990;48.174;9.782;2023-02-14T02:46:41;46.90;;;20.07;;
21657;SDS011;10990;48.174;9.782;2023-02-14T02:49:21;41.87;;;19.47;;
21657;SDS011;10990;48.174;9.782;2023-02-14T02:52:14;51.57;;;20.87;;
21657;SDS011;10990;48.174;9.782;2023-02-14T02:55:07;45.93;;;19.90;;
21657;SDS011;10990;48.174;9.782;2023-02-14T02:57:42;41.43;;;19.80;;
21657;SDS011;10990;48.174;9.782;2023-02-14T03:00:11;39.50;;;18.13;;
21657;SDS011;10990;48.174;9.782;2023-02-14T03:02:41;43.67;;;19.37;;
21657;SDS011;10990;48.174;9.782;2023-02-14T03:05:30;73.30;;;23.00;;
21657;SDS011;10990;48.174;9.782;2023-02-14T03:07:58;42.53;;;19.40;;
21657;SDS011;10990;48.174;9.782;2023-02-14T03:10:27;38.73;;;17.93;;
21657;SDS011;10990;48.174;9.782;2023-02-14T03:19:05;43.77;;;19.53;;
21657;SDS011;10990;48.174;9.782;2023-02-14T03:21:52;38.97;;;18.17;;
21657;SDS011;10990;48.174;9.782;2023-02-14T03:24:25;54.77;;;20.47;;
21657;SDS011;10990;48.174;9.782;2023-02-14T03:27:00;65.27;;;22.10;;
21657;SDS011;10990;48.174;9.782;2023-02-14T03:29:35;63.30;;;21.80;;
21657;SDS011;10990;48.174;9.782;2023-02-14T03:32:10;45.37;;;20.93;;
21657;SDS011;10990;48.174;9.782;2023-02-14T03:34:44;47.83;;;21.50;;
21657;SDS011;10990;48.174;9.782;2023-02-14T03:37:19;56.20;;;19.87;;
21657;SDS011;10990;48.174;9.782;2023-02-14T03:39:53;56.70;;;22.27;;
21657;SDS011;10990;48.174;9.782;2023-02-14T03:42:25;44.37;;;19.83;;
21657;SDS011;10990;48.174;9.782;2023-02-14T03:44:56;47.93;;;20.90;;
21657;SDS011;10990;48.174;9.782;2023-02-14T03:47:26;50.67;;;19.97;;
21657;SDS011;10990;48.174;9.782;2023-02-14T03:49:58;42.93;;;18.63;;
21657;SDS011;10990;48.174;9.782;2023-02-14T03:52:29;50.30;;;19.67;;
21657;SDS011;10990;48.174;9.782;2023-02-14T03:54:58;39.40;;;19.00;;
21657;SDS011;10990;48.174;9.782;2023-02-14T03:57:29;43.77;;;19.77;;
21657;SDS011;10990;48.174;9.782;2023-02-14T04:00:02;43.43;;;20.17;;
21657;SDS011;10990;48.174;9.782;2023-02-14T04:02:38;45.60;;;20.83;;
21657;SDS011;10990;48.174;9.782;2023-02-14T04:05:08;39.40;;;18.80;;
21657;SDS011;10990;48.174;9.782;2023-02-14T04:07:44;47.97;;;20.53;;
21657;SDS011;10990;48.174;9.782;2023-02-14T04:10:13;48.03;;;20.60;;
21657;SDS011;10990;48.174;9.782;2023-02-14T04:12:40;45.40;;;20.67;;
21657;SDS011;10990;48.174;9.782;2023-02-14T04:15:07;45.47;;;20.13;;
21657;SDS011;10990;48.174;9.782;2023-02-14T04:17:34;47.77;;;19.77;;
21657;SDS011;10990;48.174;9.782;2023-02-14T04:20:18;39.17;;;18.13;;
21657;SDS011;10990;48.174;9.782;2023-02-14T04:22:45;41.40;;;18.37;;
21657;SDS011;10990;48.174;9.782;2023-02-14T04:25:13;50.43;;;20.70;;
21657;SDS011;10990;48.174;9.782;2023-02-14T04:27:41;41.43;;;18.13;;
21657;SDS011;10990;48.174;9.782;2023-02-14T04:30:09;107.67;;;22.50;;
21657;SDS011;10990;48.174;9.782;2023-02-14T04:32:37;81.23;;;22.00;;
21657;SDS011;10990;48.174;9.782;2023-02-14T04:35:04;78.77;;;22.10;;
21657;SDS011;10990;48.174;9.782;2023-02-14T04:37:31;74.63;;;20.60;;
21657;SDS011;10990;48.174;9.782;2023-02-14T04:39:58;105.77;;;23.10;;
21657;SDS011;10990;48.174;9.782;2023-02-14T04:42:26;46.73;;;19.60;;
21657;SDS011;10990;48.174;9.782;2023-02-14T04:44:53;54.13;;;19.57;;
21657;SDS011;10990;48.174;9.782;2023-02-14T04:47:20;36.03;;;16.97;;
21657;SDS011;10990;48.174;9.782;2023-02-14T04:49:47;52.33;;;19.20;;
21657;SDS011;10990;48.174;9.782;2023-02-14T04:52:14;37.37;;;17.27;;
21657;SDS011;10990;48.174;9.782;2023-02-14T04:54:41;41.93;;;17.67;;
21657;SDS011;10990;48.174;9.782;2023-02-14T04:57:07;39.03;;;17.70;;
21657;SDS011;10990;48.174;9.782;2023-02-14T04:59:35;46.47;;;18.13;;
21657;SDS011;10990;48.174;9.782;2023-02-14T05:02:02;40.03;;;16.73;;
21657;SDS011;10990;48.174;9.782;2023-02-14T05:04:29;54.40;;;17.63;;
21657;SDS011;10990;48.174;9.782;2023-02-14T05:06:55;52.20;;;18.20;;
21657;SDS011;10990;48.174;9.782;2023-02-14T05:09:22;98.47;;;18.90;;
21657;SDS011;10990;48.174;9.782;2023-02-14T05:11:49;45.00;;;17.10;;
21657;SDS011;10990;48.174;9.782;2023-02-14T05:14:15;69.33;;;19.07;;
21657;SDS011;10990;48.174;9.782;2023-02-14T05:16:44;45.13;;;17.43;;
21657;SDS011;10990;48.174;9.782;2023-02-14T05:19:10;139.90;;;23.00;;
21657;SDS011;10990;48.174;9.782;2023-02-14T05:21:37;65.53;;;18.90;;
21657;SDS011;10990;48.174;9.782;2023-02-14T05:24:05;127.07;;;20.20;;
21657;SDS011;10990;48.174;9.782;2023-02-14T05:26:32;67.97;;;19.03;;
21657;SDS011;10990;48.174;9.782;2023-02-14T05:28:58;50.83;;;18.40;;
21657;SDS011;10990;48.174;9.782;2023-02-14T05:31:25;46.40;;;16.93;;
21657;SDS011;10990;48.174;9.782;2023-02-14T05:33:53;68.77;;;19.67;;
21657;SDS011;10990;48.174;9.782;2023-02-14T05:36:20;30.37;;;15.13;;
21657;SDS011;10990;48.174;9.782;2023-02-14T05:38:47;40.67;;;16.53;;
21657;SDS011;10990;48.174;9.782;2023-02-14T05:41:13;36.33;;;16.10;;
21657;SDS011;10990;48.174;9.782;2023-02-14T05:43:40;52.13;;;17.17;;
21657;SDS011;10990;48.174;9.782;2023-02-14T05:46:07;52.63;;;16.70;;
21657;SDS011;10990;48.174;9.782;2023-02-14T05:48:33;41.30;;;16.43;;
21657;SDS011;10990;48.174;9.782;2023-02-14T05:51:03;66.07;;;18.87;;
21657;SDS011;10990;48.174;9.782;2023-02-14T05:53:30;62.30;;;17.50;;
21657;SDS011;10990;48.174;9.782;2023-02-14T05:55:57;87.53;;;19.27;;
21657;SDS011;10990;48.174;9.782;2023-02-14T05:58:24;51.17;;;16.60;;
21657;SDS011;10990;48.174;9.782;2023-02-14T06:00:50;44.30;;;15.97;;
21657;SDS011;10990;48.174;9.782;2023-02-14T06:03:17;35.40;;;15.73;;
21657;SDS011;10990;48.174;9.782;2023-02-14T06:05:44;49.07;;;16.70;;
21657;SDS011;10990;48.174;9.782;2023-02-14T06:08:12;74.00;;;17.57;;
21657;SDS011;10990;48.174;9.782;2023-02-14T06:10:39;38.40;;;17.17;;
21657;SDS011;10990;48.174;9.782;2023-02-14T06:13:06;65.37;;;17.73;;
21657;SDS011;10990;48.174;9.782;2023-02-14T06:15:33;43.30;;;18.03;;
21657;SDS011;10990;48.174;9.782;2023-02-14T06:18:00;37.03;;;16.50;;
21657;SDS011;10990;48.174;9.782;2023-02-14T06:20:26;38.97;;;16.03;;
21657;SDS011;10990;48.174;9.782;2023-02-14T06:22:53;41.83;;;17.27;;
21657;SDS011;10990;48.174;9.782;2023-02-14T06:25:22;41.67;;;15.27;;
21657;SDS011;10990;48.174;9.782;2023-02-14T06:27:49;48.43;;;16.67;;
21657;SDS011;10990;48.174;9.782;2023-02-14T06:30:16;33.70;;;16.07;;
21657;SDS011;10990;48.174;9.782;2023-02-14T06:32:43;41.37;;;14.90;;
21657;SDS011;10990;48.174;9.782;2023-02-14T06:35:10;37.63;;;15.93;;
21657;SDS011;10990;48.174;9.782;2023-02-14T06:37:37;41.43;;;16.40;;
21657;SDS011;10990;48.174;9.782;2023-02-14T06:40:06;35.40;;;15.43;;
21657;SDS011;10990;48.174;9.782;2023-02-14T06:42:35;41.10;;;16.87;;
21657;SDS011;10990;48.174;9.782;2023-02-14T06:45:02;46.03;;;17.30;;
21657;SDS011;10990;48.174;9.782;2023-02-14T06:47:29;48.20;;;17.33;;
21657;SDS011;10990;48.174;9.782;2023-02-14T06:49:55;40.43;;;15.93;;
21657;SDS011;10990;48.174;9.782;2023-02-14T06:52:24;38.97;;;15.90;;
21657;SDS011;10990;48.174;9.782;2023-02-14T06:54:50;56.63;;;17.53;;
21657;SDS011;10990;48.174;9.782;2023-02-14T06:57:17;48.00;;;17.37;;
21657;SDS011;10990;48.174;9.782;2023-02-14T06:59:45;43.43;;;16.83;;
21657;SDS011;10990;48.174;9.782;2023-02-14T07:02:12;66.93;;;18.80;;
21657;SDS011;10990;48.174;9.782;2023-02-14T07:04:39;39.70;;;15.60;;
21657;SDS011;10990;48.174;9.782;2023-02-14T07:07:05;38.03;;;17.13;;
21657;SDS011;10990;48.174;9.782;2023-02-14T07:09:32;38.70;;;16.73;;
21657;SDS011;10990;48.174;9.782;2023-02-14T07:11:59;37.13;;;16.50;;
21657;SDS011;10990;48.174;9.782;2023-02-14T07:14:26;58.00;;;17.77;;
21657;SDS011;10990;48.174;9.782;2023-02-14T07:16:54;84.27;;;19.90;;
21657;SDS011;10990;48.174;9.782;2023-02-14T07:19:20;51.80;;;18.07;;
21657;SDS011;10990;48.174;9.782;2023-02-14T07:21:47;35.87;;;15.87;;
21657;SDS011;10990;48.174;9.782;2023-02-14T07:24:14;38.23;;;15.80;;
21657;SDS011;10990;48.174;9.782;2023-02-14T07:26:41;37.67;;;16.83;;
21657;SDS011;10990;48.174;9.782;2023-02-14T07:29:07;45.27;;;17.83;;
21657;SDS011;10990;48.174;9.782;2023-02-14T07:31:34;54.30;;;18.77;;
21657;SDS011;10990;48.174;9.782;2023-02-14T07:34:02;45.10;;;17.10;;
21657;SDS011;10990;48.174;9.782;2023-02-14T07:36:29;46.27;;;17.80;;
21657;SDS011;10990;48.174;9.782;2023-02-14T07:38:56;46.70;;;18.00;;
21657;SDS011;10990;48.174;9.782;2023-02-14T07:41:22;60.67;;;18.97;;
21657;SDS011;10990;48.174;9.782;2023-02-14T07:43:49;42.83;;;17.67;;
21657;SDS011;10990;48.174;9.782;2023-02-14T07:46:16;44.93;;;18.33;;
21657;SDS011;10990;48.174;9.782;2023-02-14T07:48:43;42.37;;;18.17;;
21657;SDS011;10990;48.174;9.782;2023-02-14T07:51:11;43.13;;;18.10;;
21657;SDS011;10990;48.174;9.782;2023-02-14T07:53:38;35.63;;;16.20;;
21657;SDS011;10990;48.174;9.782;2023-02-14T07:56:05;41.60;;;17.33;;
21657;SDS011;10990;48.174;9.782;2023-02-14T07:58:32;40.63;;;17.40;;
21657;SDS011;10990;48.174;9.782;2023-02-14T08:00:58;41.77;;;16.20;;
21657;SDS011;10990;48.174;9.782;2023-02-14T08:03:25;45.77;;;16.90;;
21657;SDS011;10990;48.174;9.782;2023-02-14T08:05:52;49.07;;;17.53;;
21657;SDS011;10990;48.174;9.782;2023-02-14T08:08:24;45.03;;;17.47;;
21657;SDS011;10990;48.174;9.782;2023-02-14T08:10:52;41.67;;;16.27;;
21657;SDS011;10990;48.174;9.782;2023-02-14T08:13:19;31.27;;;15.60;;
21657;SDS011;10990;48.174;9.782;2023-02-14T08:15:46;38.93;;;15.63;;
21657;SDS011;10990;48.174;9.782;2023-02-14T08:18:32;42.80;;;17.73;;
21657;SDS011;10990;48.174;9.782;2023-02-14T08:21:00;35.77;;;16.40;;
21657;SDS011;10990;48.174;9.782;2023-02-14T08:23:29;36.30;;;16.03;;
21657;SDS011;10990;48.174;9.782;2023-02-14T08:25:56;37.87;;;16.67;;
21657;SDS011;10990;48.174;9.782;2023-02-14T08:28:22;30.17;;;14.93;;
21657;SDS011;10990;48.174;9.782;2023-02-14T08:30:49;32.73;;;16.03;;
21657;SDS011;10990;48.174;9.782;2023-02-14T08:33:17;35.33;;;16.37;;
21657;SDS011;10990;48.174;9.782;2023-02-14T08:35:44;32.77;;;15.93;;
21657;SDS011;10990;48.174;9.782;2023-02-14T08:38:10;30.33;;;15.27;;
21657;SDS011;10990;48.174;9.782;2023-02-14T08:40:39;39.87;;;17.60;;
21657;SDS011;10990;48.174;9.782;2023-02-14T08:43:06;34.10;;;16.93;;
21657;SDS011;10990;48.174;9.782;2023-02-14T08:45:33;30.33;;;16.03;;
21657;SDS011;10990;48.174;9.782;2023-02-14T08:48:01;30.93;;;15.40;;
21657;SDS011;10990;48.174;9.782;2023-02-14T08:50:28;36.97;;;18.00;;
21657;SDS011;10990;48.174;9.782;2023-02-14T08:52:55;31.77;;;15.27;;
21657;SDS011;10990;48.174;9.782;2023-02-14T08:55:22;31.83;;;16.30;;
21657;SDS011;10990;48.174;9.782;2023-02-14T08:57:50;32.90;;;16.37;;
21657;SDS011;10990;48.174;9.782;2023-02-14T09:00:17;31.37;;;15.50;;
21657;SDS011;10990;48.174;9.782;2023-02-14T09:02:44;32.20;;;16.07;;
21657;SDS011;10990;48.174;9.782;2023-02-14T09:05:15;32.77;;;16.93;;
21657;SDS011;10990;48.174;9.782;2023-02-14T09:07:42;29.40;;;15.53;;
21657;SDS011;10990;48.174;9.782;2023-02-14T09:10:09;32.13;;;15.87;;
21657;SDS011;10990;48.174;9.782;2023-02-14T09:12:37;31.33;;;15.43;;
21657;SDS011;10990;48.174;9.782;2023-02-14T09:15:06;29.03;;;15.13;;
21657;SDS011;10990;48.174;9.782;2023-02-14T09:17:33;27.97;;;14.63;;
21657;SDS011;10990;48.174;9.782;2023-02-14T09:20:00;29.07;;;14.60;;
21657;SDS011;10990;48.174;9.782;2023-02-14T09:22:27;29.27;;;14.63;;
21657;SDS011;10990;48.174;9.782;2023-02-14T09:24:54;29.90;;;15.70;;
21657;SDS011;10990;48.174;9.782;2023-02-14T09:27:20;32.47;;;17.10;;
21657;SDS011;10990;48.174;9.782;2023-02-14T09:29:47;29.57;;;15.73;;
21657;SDS011;10990;48.174;9.782;2023-02-14T09:32:15;29.40;;;15.83;;
21657;SDS011;10990;48.174;9.782;2023-02-14T09:34:42;28.57;;;15.93;;
21657;SDS011;10990;48.174;9.782;2023-02-14T09:37:27;26.97;;;14.07;;
21657;SDS011;10990;48.174;9.782;2023-02-14T09:39:54;29.27;;;15.33;;
21657;SDS011;10990;48.174;9.782;2023-02-14T09:42:25;31.50;;;15.67;;
21657;SDS011;10990;48.174;9.782;2023-02-14T09:45:09;31.17;;;15.73;;
21657;SDS011;10990;48.174;9.782;2023-02-14T09:47:41;30.67;;;15.90;;
21657;SDS011;10990;48.174;9.782;2023-02-14T09:50:14;29.83;;;15.90;;
21657;SDS011;10990;48.174;9.782;2023-02-14T09:52:44;28.93;;;14.63;;
21657;SDS011;10990;48.174;9.782;2023-02-14T09:55:15;26.90;;;14.43;;
21657;SDS011;10990;48.174;9.782;2023-02-14T09:57:43;25.53;;;14.37;;
21657;SDS011;10990;48.174;9.782;2023-02-14T10:00:22;24.93;;;14.13;;
21657;SDS011;10990;48.174;9.782;2023-02-14T10:02:59;29.00;;;15.57;;
21657;SDS011;10990;48.174;9.782;2023-02-14T10:05:41;27.00;;;15.13;;
21657;SDS011;10990;48.174;9.782;2023-02-14T10:08:17;25.13;;;14.17;;
21657;SDS011;10990;48.174;9.782;2023-02-14T10:10:58;29.67;;;14.67;;
21657;SDS011;10990;48.174;9.782;2023-02-14T10:13:31;28.33;;;16.07;;
21657;SDS011;10990;48.174;9.782;2023-02-14T10:16:06;26.60;;;14.70;;
21657;SDS011;10990;48.174;9.782;2023-02-14T10:18:39;26.60;;;14.90;;
21657;SDS011;10990;48.174;9.782;2023-02-14T10:21:11;25.03;;;13.80;;
21657;SDS011;10990;48.174;9.782;2023-02-14T10:23:48;24.93;;;13.87;;
21657;SDS011;10990;48.174;9.782;2023-02-14T10:26:20;24.30;;;13.47;;
21657;SDS011;10990;48.174;9.782;2023-02-14T10:28:51;28.60;;;14.90;;
21657;SDS011;10990;48.174;9.782;2023-02-14T10:31:19;24.30;;;14.33;;
21657;SDS011;10990;48.174;9.782;2023-02-14T10:33:51;23.77;;;13.57;;
21657;SDS011;10990;48.174;9.782;2023-02-14T10:36:25;23.13;;;12.87;;
21657;SDS011;10990;48.174;9.782;2023-02-14T10:39:02;24.67;;;13.60;;
21657;SDS011;10990;48.174;9.782;2023-02-14T10:41:41;23.80;;;13.90;;
21657;SDS011;10990;48.174;9.782;2023-02-14T10:44:19;24.87;;;14.93;;
21657;SDS011;10990;48.174;9.782;2023-02-14T10:47:01;24.83;;;14.37;;
21657;SDS011;10990;48.174;9.782;2023-02-14T10:49:39;23.63;;;14.00;;
21657;SDS011;10990;48.174;9.782;2023-02-14T10:52:12;22.43;;;13.10;;
21657;SDS011;10990;48.174;9.782;2023-02-14T10:54:45;23.67;;;13.20;;
21657;SDS011;10990;48.174;9.782;2023-02-14T10:57:19;23.27;;;14.00;;
21657;SDS011;10990;48.174;9.782;2023-02-14T10:59:50;25.03;;;14.47;;
21657;SDS011;10990;48.174;9.782;2023-02-14T11:02:21;24.10;;;13.60;;
21657;SDS011;10990;48.174;9.782;2023-02-14T11:04:51;23.93;;;13.17;;
21657;SDS011;10990;48.174;9.782;2023-02-14T11:07:19;25.20;;;14.67;;
21657;SDS011;10990;48.174;9.782;2023-02-14T11:09:48;25.20;;;14.03;;
21657;SDS011;10990;48.174;9.782;2023-02-14T11:15:06;23.83;;;13.50;;
21657;SDS011;10990;48.174;9.782;2023-02-14T11:17:35;24.83;;;13.37;;
21657;SDS011;10990;48.174;9.782;2023-02-14T11:20:19;23.23;;;13.60;;
21657;SDS011;10990;48.174;9.782;2023-02-14T11:22:48;21.90;;;12.87;;
21657;SDS011;10990;48.174;9.782;2023-02-14T11:25:17;21.53;;;12.80;;
21657;SDS011;10990;48.174;9.782;2023-02-14T11:27:45;22.30;;;12.73;;
21657;SDS011;10990;48.174;9.782;2023-02-14T11:30:19;27.00;;;14.30;;
21657;SDS011;10990;48.174;9.782;2023-02-14T11:32:51;24.37;;;14.23;;
21657;SDS011;10990;48.174;9.782;2023-02-14T11:35:22;22.90;;;13.77;;
21657;SDS011;10990;48.174;9.782;2023-02-14T11:37:58;21.63;;;12.50;;
21657;SDS011;10990;48.174;9.782;2023-02-14T11:40:27;23.07;;;13.03;;
21657;SDS011;10990;48.174;9.782;2023-02-14T11:42:57;23.17;;;13.50;;
21657;SDS011;10990;48.174;9.782;2023-02-14T11:45:26;22.10;;;12.57;;
21657;SDS011;10990;48.174;9.782;2023-02-14T11:48:05;22.47;;;12.63;;
21657;SDS011;10990;48.174;9.782;2023-02-14T11:50:35;23.87;;;14.10;;
21657;SDS011;10990;48.174;9.782;2023-02-14T11:53:04;23.40;;;13.47;;
21657;SDS011;10990;48.174;9.782;2023-02-14T11:55:36;20.30;;;12.43;;
21657;SDS011;10990;48.174;9.782;2023-02-14T11:58:03;22.20;;;14.10;;
21657;SDS011;10990;48.174;9.782;2023-02-14T12:00:33;21.37;;;13.00;;
21657;SDS011;10990;48.174;9.782;2023-02-14T12:03:00;22.17;;;13.00;;
21657;SDS011;10990;48.174;9.782;2023-02-14T12:05:30;26.30;;;15.77;;
21657;SDS011;10990;48.174;9.782;2023-02-14T12:08:02;25.50;;;13.93;;
21657;SDS011;10990;48.174;9.782;2023-02-14T12:10:32;25.97;;;14.67;;
21657;SDS011;10990;48.174;9.782;2023-02-14T12:13:00;24.57;;;14.53;;
21657;SDS011;10990;48.174;9.782;2023-02-14T12:15:30;24.53;;;14.57;;
21657;SDS011;10990;48.174;9.782;2023-02-14T12:18:12;26.47;;;15.53;;
21657;SDS011;10990;48.174;9.782;2023-02-14T12:20:48;26.10;;;15.20;;
21657;SDS011;10990;48.174;9.782;2023-02-14T12:23:23;28.40;;;16.23;;
21657;SDS011;10990;48.174;9.782;2023-02-14T12:25:54;28.00;;;17.07;;
21657;SDS011;10990;48.174;9.782;2023-02-14T12:28:27;25.67;;;14.93;;
21657;SDS011;10990;48.174;9.782;2023-02-14T12:31:06;25.13;;;15.23;;
21657;SDS011;10990;48.174;9.782;2023-02-14T12:33:35;29.97;;;16.40;;
21657;SDS011;10990;48.174;9.782;2023-02-14T12:36:06;28.17;;;16.13;;
21657;SDS011;10990;48.174;9.782;2023-02-14T12:38:43;29.57;;;15.97;;
21657;SDS011;10990;48.174;9.782;2023-02-14T12:41:18;33.80;;;17.37;;
21657;SDS011;10990;48.174;9.782;2023-02-14T12:43:55;32.83;;;17.93;;
21657;SDS011;10990;48.174;9.782;2023-02-14T12:46:36;30.40;;;17.43;;
21657;SDS011;10990;48.174;9.782;2023-02-14T12:49:16;30.07;;;16.57;;
21657;SDS011;10990;48.174;9.782;2023-02-14T12:51:55;28.67;;;16.57;;
21657;SDS011;10990;48.174;9.782;2023-02-14T12:54:47;28.50;;;16.73;;
21657;SDS011;10990;48.174;9.782;2023-02-14T12:57:25;29.63;;;17.30;;
21657;SDS011;10990;48.174;9.782;2023-02-14T13:00:03;30.77;;;17.47;;
21657;SDS011;10990;48.174;9.782;2023-02-14T13:02:51;30.80;;;17.70;;
21657;SDS011;10990;48.174;9.782;2023-02-14T13:05:48;29.53;;;16.47;;
21657;SDS011;10990;48.174;9.782;2023-02-14T13:08:27;32.23;;;17.77;;
21657;SDS011;10990;48.174;9.782;2023-02-14T13:11:17;29.60;;;16.73;;
21657;SDS011;10990;48.174;9.782;2023-02-14T13:13:54;31.83;;;17.60;;
21657;SDS011;10990;48.174;9.782;2023-02-14T13:16:30;27.83;;;15.67;;
21657;SDS011;10990;48.174;9.782;2023-02-14T13:19:03;30.00;;;16.83;;
21657;SDS011;10990;48.174;9.782;2023-02-14T13:21:36;26.90;;;16.30;;
21657;SDS011;10990;48.174;9.782;2023-02-14T13:24:14;26.27;;;15.70;;
21657;SDS011;10990;48.174;9.782;2023-02-14T13:26:47;29.33;;;16.77;;
21657;SDS011;10990;48.174;9.782;2023-02-14T13:29:19;30.53;;;16.77;;
21657;SDS011;10990;48.174;9.782;2023-02-14T13:31:49;28.27;;;16.30;;
21657;SDS011;10990;48.174;9.782;2023-02-14T13:34:20;33.37;;;17.20;;
21657;SDS011;10990;48.174;9.782;2023-02-14T13:36:52;28.80;;;17.17;;
21657;SDS011;10990;48.174;9.782;2023-02-14T13:39:21;30.20;;;17.10;;
21657;SDS011;10990;48.174;9.782;2023-02-14T13:41:55;29.77;;;16.73;;
21657;SDS011;10990;48.174;9.782;2023-02-14T13:44:40;30.73;;;16.77;;
21657;SDS011;10990;48.174;9.782;2023-02-14T13:47:14;29.67;;;16.33;;
21657;SDS011;10990;48.174;9.782;2023-02-14T13:49:45;29.63;;;17.27;;
21657;SDS011;10990;48.174;9.782;2023-02-14T13:55:06;30.73;;;17.73;;
21657;SDS011;10990;48.174;9.782;2023-02-14T13:57:36;31.80;;;17.93;;
21657;SDS011;10990;48.174;9.782;2023-02-14T14:00:22;29.60;;;16.63;;
21657;SDS011;10990;48.174;9.782;2023-02-14T14:03:05;33.73;;;17.40;;
21657;SDS011;10990;48.174;9.782;2023-02-14T14:05:46;34.03;;;19.10;;
21657;SDS011;10990;48.174;9.782;2023-02-14T14:14:27;36.77;;;19.73;;
21657;SDS011;10990;48.174;9.782;2023-02-14T14:17:00;37.93;;;20.07;;
21657;SDS011;10990;48.174;9.782;2023-02-14T14:19:35;40.97;;;21.20;;
21657;SDS011;10990;48.174;9.782;2023-02-14T14:22:04;34.83;;;19.17;;
21657;SDS011;10990;48.174;9.782;2023-02-14T14:24:34;33.33;;;18.50;;
21657;SDS011;10990;48.174;9.782;2023-02-14T14:27:03;38.00;;;19.90;;
21657;SDS011;10990;48.174;9.782;2023-02-14T14:29:42;38.67;;;20.27;;
21657;SDS011;10990;48.174;9.782;2023-02-14T14:32:12;35.33;;;19.53;;
21657;SDS011;10990;48.174;9.782;2023-02-14T14:34:47;40.87;;;21.07;;
21657;SDS011;10990;48.174;9.782;2023-02-14T14:37:16;38.37;;;20.93;;
21657;SDS011;10990;48.174;9.782;2023-02-14T14:39:48;38.47;;;20.03;;
21657;SDS011;10990;48.174;9.782;2023-02-14T14:42:17;39.00;;;19.77;;
21657;SDS011;10990;48.174;9.782;2023-02-14T14:44:46;35.33;;;19.83;;
21657;SDS011;10990;48.174;9.782;2023-02-14T14:47:17;36.23;;;19.27;;
21657;SDS011;10990;48.174;9.782;2023-02-14T14:49:47;32.33;;;18.17;;
21657;SDS011;10990;48.174;9.782;2023-02-14T14:52:21;36.10;;;20.87;;
21657;SDS011;10990;48.174;9.782;2023-02-14T14:54:54;36.87;;;20.00;;
21657;SDS011;10990;48.174;9.782;2023-02-14T14:57:22;37.70;;;20.27;;
21657;SDS011;10990;48.174;9.782;2023-02-14T15:00:01;40.23;;;20.27;;
21657;SDS011;10990;48.174;9.782;2023-02-14T15:02:38;40.53;;;21.57;;
21657;SDS011;10990;48.174;9.782;2023-02-14T15:05:18;39.47;;;20.63;;
21657;SDS011;10990;48.174;9.782;2023-02-14T15:07:50;34.93;;;19.00;;
21657;SDS011;10990;48.174;9.782;2023-02-14T15:10:23;39.33;;;21.13;;